Time;durP1;ratioP1;P1;durP2;ratioP2;P2;SDS_P1;SDS_P2;PMS_P1;PMS_P2;Temp;Humidity;BMP_temperature;BMP_pressure;BME280_temperature;BME280_humidity;BME280_pressure;Samples;Min_cycle;Max_cycle;Signal;HPM_P1;HPM_P2
2022/11/02 00:01:43;;;;;;;16.38;2.40;;;;;;;;;;5007367;28;20102;-76
2022/11/02 00:04:51;;;;;;;12.20;2.75;;;;;;;;;;5003796;28;20035;-75
2022/11/02 00:07:40;;;;;;;17.75;2.78;;;;;;;;;;4991694;28;20138;-73
2022/11/02 00:10:10;;;;;;;16.23;2.30;;;;;;;;;;4998866;28;20059;-73
2022/11/02 00:13:12;;;;;;;12.95;2.15;;;;;;;;;;4989620;28;20039;-74
2022/11/02 00:15:56;;;;;;;13.85;2.45;;;;;;;;;;4991708;28;20062;-75
2022/11/02 00:18:33;;;;;;;14.25;2.70;;;;;;;;;;4999888;28;20055;-75
2022/11/02 00:21:01;;;;;;;19.30;2.67;;;;;;;;;;5010142;28;20102;-76
2022/11/02 00:23:32;;;;;;;11.82;1.98;;;;;;;;;;5003310;28;20884;-76
2022/11/02 00:26:13;;;;;;;15.10;2.53;;;;;;;;;;5003070;28;22032;-76
2022/11/02 00:28:55;;;;;;;15.93;2.25;;;;;;;;;;4998239;28;20058;-75
2022/11/02 00:31:36;;;;;;;18.45;2.30;;;;;;;;;;4986989;28;20058;-75
2022/11/02 00:34:22;;;;;;;16.30;2.45;;;;;;;;;;5002255;28;20071;-74
2022/11/02 00:36:55;;;;;;;15.05;2.08;;;;;;;;;;5021846;28;20674;-74
2022/11/02 00:39:42;;;;;;;9.98;2.05;;;;;;;;;;5008765;28;20062;-76
2022/11/02 00:42:36;;;;;;;12.75;2.22;;;;;;;;;;5022079;28;20051;-77
2022/11/02 00:45:18;;;;;;;12.63;2.72;;;;;;;;;;5009175;28;20063;-73
2022/11/02 00:48:19;;;;;;;15.57;2.58;;;;;;;;;;5022044;28;20042;-75
2022/11/02 00:51:10;;;;;;;14.27;2.17;;;;;;;;;;5020973;28;20054;-75
2022/11/02 00:53:51;;;;;;;15.80;1.90;;;;;;;;;;5021440;28;20062;-74
2022/11/02 00:56:32;;;;;;;12.15;2.03;;;;;;;;;;5006820;28;20027;-73
2022/11/02 00:59:03;;;;;;;19.52;3.03;;;;;;;;;;5003314;28;20050;-74
2022/11/02 01:01:52;;;;;;;11.13;1.67;;;;;;;;;;5003735;28;20049;-73
2022/11/02 01:04:30;;;;;;;9.35;1.60;;;;;;;;;;5006999;28;20046;-74
2022/11/02 01:07:13;;;;;;;13.32;2.13;;;;;;;;;;5008686;28;20109;-73
2022/11/02 01:09:41;;;;;;;9.60;1.48;;;;;;;;;;4986629;28;20062;-74
2022/11/02 01:12:11;;;;;;;15.65;2.00;;;;;;;;;;5007434;28;20865;-76
2022/11/02 01:15:21;;;;;;;7.18;1.50;;;;;;;;;;5000192;28;20047;-72
2022/11/02 01:17:47;;;;;;;4.90;0.80;;;;;;;;;;5001454;28;20047;-73
2022/11/02 01:20:20;;;;;;;3.42;1.45;;;;;;;;;;5003167;28;20061;-76
2022/11/02 01:23:04;;;;;;;11.80;1.42;;;;;;;;;;4988548;28;20063;-76
2022/11/02 01:25:47;;;;;;;10.68;1.13;;;;;;;;;;5001416;28;20115;-73
2022/11/02 01:28:29;;;;;;;7.10;1.38;;;;;;;;;;5019416;28;20047;-74
2022/11/02 01:31:05;;;;;;;7.40;1.08;;;;;;;;;;5032020;28;20051;-73
2022/11/02 01:33:43;;;;;;;4.78;1.13;;;;;;;;;;5021733;28;20049;-74
2022/11/02 01:36:34;;;;;;;3.35;0.95;;;;;;;;;;5008305;28;20058;-76
2022/11/02 01:39:15;;;;;;;8.15;1.00;;;;;;;;;;5017700;28;20039;-75
2022/11/02 01:41:51;;;;;;;8.90;1.25;;;;;;;;;;5036731;28;20047;-76
2022/11/02 01:44:39;;;;;;;10.23;1.00;;;;;;;;;;5022283;28;20042;-74
2022/11/02 01:50:31;;;;;;;9.00;1.45;;;;;;;;;;5023140;28;20027;-74
2022/11/02 01:53:13;;;;;;;10.70;1.20;;;;;;;;;;5014569;28;20074;-75
2022/11/02 01:55:44;;;;;;;7.03;0.95;;;;;;;;;;5024644;28;20088;-77
2022/11/02 01:58:47;;;;;;;7.43;1.02;;;;;;;;;;5033020;28;20133;-74
2022/11/02 02:01:17;;;;;;;7.07;1.05;;;;;;;;;;5016336;28;20086;-74
2022/11/02 02:04:08;;;;;;;44.63;2.58;;;;;;;;;;5031956;28;20941;-76
2022/11/02 02:07:00;;;;;;;9.70;0.90;;;;;;;;;;5016239;28;20062;-76
2022/11/02 02:09:46;;;;;;;11.50;1.63;;;;;;;;;;5012666;28;20100;-75
2022/11/02 02:12:31;;;;;;;7.97;0.63;;;;;;;;;;5017160;28;20050;-75
2022/11/02 02:15:38;;;;;;;9.52;1.10;;;;;;;;;;5025007;28;20058;-74
2022/11/02 02:18:39;;;;;;;5.35;0.98;;;;;;;;;;4994606;28;20076;-77
2022/11/02 02:21:26;;;;;;;12.98;1.40;;;;;;;;;;4998341;28;20206;-76
2022/11/02 02:24:00;;;;;;;8.00;1.38;;;;;;;;;;4981074;28;20842;-77
2022/11/02 02:27:07;;;;;;;11.10;1.95;;;;;;;;;;4981969;28;20781;-75
2022/11/02 02:30:10;;;;;;;11.13;1.02;;;;;;;;;;4977491;28;20067;-76
2022/11/02 02:33:01;;;;;;;11.27;1.30;;;;;;;;;;4961379;28;20113;-75
2022/11/02 02:36:09;;;;;;;14.20;1.58;;;;;;;;;;4951807;28;20423;-76
2022/11/02 02:39:07;;;;;;;7.50;1.58;;;;;;;;;;4958278;28;20052;-73
2022/11/02 02:42:10;;;;;;;9.25;1.20;;;;;;;;;;4956355;28;20672;-76
2022/11/02 02:44:51;;;;;;;13.00;2.15;;;;;;;;;;4960859;28;21102;-77
2022/11/02 02:47:22;;;;;;;7.80;1.80;;;;;;;;;;4952041;28;20032;-73
2022/11/02 02:49:59;;;;;;;8.20;1.90;;;;;;;;;;4941050;28;20056;-73
2022/11/02 02:52:28;;;;;;;11.52;1.95;;;;;;;;;;4961487;28;20107;-75
2022/11/02 02:56:14;;;;;;;8.65;2.20;;;;;;;;;;4916786;29;20715;-75
2022/11/02 02:59:03;;;;;;;11.93;2.50;;;;;;;;;;4919195;29;20087;-76
2022/11/02 03:01:37;;;;;;;16.30;2.70;;;;;;;;;;4920270;29;20878;-73
2022/11/02 03:04:49;;;;;;;;;;;;;;;;;;;;;
2022/11/02 03:07:47;;;;;;;11.70;2.17;;;;;;;;;;4943536;28;20047;-76
2022/11/02 03:10:37;;;;;;;9.00;2.38;;;;;;;;;;4946631;28;20032;-75
2022/11/02 03:13:36;;;;;;;16.45;2.17;;;;;;;;;;4944228;28;20052;-76
2022/11/02 03:16:25;;;;;;;;;;;;;;;;;;;;;
2022/11/02 03:19:08;;;;;;;15.43;2.53;;;;;;;;;;5007466;28;20042;-75
2022/11/02 03:21:44;;;;;;;17.73;2.00;;;;;;;;;;5006534;28;20054;-74
2022/11/02 03:24:34;;;;;;;10.52;1.80;;;;;;;;;;4991989;28;20057;-75
2022/11/02 03:27:20;;;;;;;14.85;1.90;;;;;;;;;;5019562;28;20061;-75
2022/11/02 03:29:56;;;;;;;11.63;1.80;;;;;;;;;;5005263;28;20047;-75
2022/11/02 03:32:39;;;;;;;8.98;2.10;;;;;;;;;;5016671;28;20038;-76
2022/11/02 03:36:04;;;;;;;14.30;2.03;;;;;;;;;;4980350;28;20157;-76
2022/11/02 03:39:21;;;;;;;11.85;2.10;;;;;;;;;;5002654;28;20068;-76
2022/11/02 03:42:10;;;;;;;;;;;;;;;;;;;;;
2022/11/02 03:45:27;;;;;;;16.67;2.60;;;;;;;;;;4926218;29;20044;-75
2022/11/02 03:48:16;;;;;;;16.33;1.88;;;;;;;;;;4931978;29;20048;-74
2022/11/02 03:50:49;;;;;;;18.33;1.92;;;;;;;;;;4932642;29;20048;-75
2022/11/02 03:53:57;;;;;;;14.77;1.98;;;;;;;;;;4932774;29;20105;-76
2022/11/02 03:56:46;;;;;;;20.10;2.20;;;;;;;;;;4907631;29;20037;-77
2022/11/02 04:00:00;;;;;;;14.40;1.70;;;;;;;;;;4922893;29;20075;-76
2022/11/02 04:02:50;;;;;;;15.15;2.05;;;;;;;;;;4848033;29;20065;-76
2022/11/02 04:05:50;;;;;;;14.80;2.35;;;;;;;;;;4820896;29;20154;-75
2022/11/02 04:08:48;;;;;;;19.70;2.53;;;;;;;;;;4845215;29;20051;-74
2022/11/02 04:15:08;;;;;;;18.83;2.40;;;;;;;;;;4744745;30;20052;-75
2022/11/02 04:20:56;;;;;;;14.13;1.63;;;;;;;;;;4942212;28;20055;-75
2022/11/02 04:26:54;;;;;;;18.63;2.47;;;;;;;;;;4984043;28;20051;-74
2022/11/02 04:29:53;;;;;;;16.10;2.00;;;;;;;;;;5012107;28;20054;-74
2022/11/02 04:35:45;;;;;;;15.40;2.17;;;;;;;;;;4991080;28;20050;-76
2022/11/02 04:39:22;;;;;;;15.55;1.83;;;;;;;;;;5011012;28;20047;-75
2022/11/02 04:41:59;;;;;;;22.52;2.50;;;;;;;;;;4989636;28;20050;-74
2022/11/02 04:44:38;;;;;;;10.93;2.55;;;;;;;;;;5011051;28;20796;-74
2022/11/02 04:47:38;;;;;;;13.27;2.10;;;;;;;;;;4961544;28;20052;-76
2022/11/02 04:50:20;;;;;;;14.57;2.60;;;;;;;;;;4966164;28;20050;-76
2022/11/02 04:52:59;;;;;;;16.80;2.42;;;;;;;;;;5014621;28;20061;-74
2022/11/02 04:55:49;;;;;;;16.70;2.83;;;;;;;;;;5013581;28;20085;-74
2022/11/02 04:58:40;;;;;;;12.88;2.38;;;;;;;;;;5012079;28;20053;-75
2022/11/02 05:01:18;;;;;;;14.95;2.10;;;;;;;;;;5015618;28;20047;-74
2022/11/02 05:04:02;;;;;;;12.20;2.20;;;;;;;;;;5016702;28;20113;-72
2022/11/02 05:07:13;;;;;;;17.67;2.40;;;;;;;;;;5027374;28;20070;-75
2022/11/02 05:10:06;;;;;;;;;;;;;;;;;;5022165;28;20051;-75
2022/11/02 05:12:37;;;;;;;13.48;2.22;;;;;;;;;;5019926;28;44139;-76
2022/11/02 05:15:15;;;;;;;18.80;2.25;;;;;;;;;;5022865;28;20039;-75
2022/11/02 05:17:50;;;;;;;9.88;2.35;;;;;;;;;;5023485;28;20055;-75
2022/11/02 05:20:39;;;;;;;17.75;2.25;;;;;;;;;;5020338;28;20931;-75
2022/11/02 05:23:23;;;;;;;11.85;2.20;;;;;;;;;;5015773;28;20042;-74
2022/11/02 05:26:17;;;;;;;17.20;2.42;;;;;;;;;;5011092;28;20050;-74
2022/11/02 05:28:58;;;;;;;15.95;2.25;;;;;;;;;;5018963;28;20034;-75
2022/11/02 05:31:32;;;;;;;19.83;2.83;;;;;;;;;;5014241;28;20050;-75
2022/11/02 05:34:16;;;;;;;13.18;1.88;;;;;;;;;;5027518;28;20047;-76
2022/11/02 05:37:07;;;;;;;14.90;2.92;;;;;;;;;;5013462;28;20096;-76
2022/11/02 05:43:03;;;;;;;18.00;2.80;;;;;;;;;;4935358;29;20095;-74
2022/11/02 05:45:57;;;;;;;14.18;2.15;;;;;;;;;;4933206;28;20052;-74
2022/11/02 05:48:57;;;;;;;21.13;2.58;;;;;;;;;;4977721;28;20069;-74
2022/11/02 05:51:36;;;;;;;19.08;3.22;;;;;;;;;;4994481;28;20044;-74
2022/11/02 05:54:09;;;;;;;23.58;2.78;;;;;;;;;;4989971;28;20098;-75
2022/11/02 05:56:44;;;;;;;14.00;2.10;;;;;;;;;;4993532;28;20138;-74
2022/11/02 05:59:38;;;;;;;20.85;2.20;;;;;;;;;;4925731;29;20095;-74
2022/11/02 06:02:15;;;;;;;21.98;2.35;;;;;;;;;;4930727;29;20057;-75
2022/11/02 06:05:16;;;;;;;21.35;2.72;;;;;;;;;;4904884;29;20140;-74
2022/11/02 06:07:49;;;;;;;16.88;2.10;;;;;;;;;;4931207;28;20056;-74
2022/11/02 06:10:58;;;;;;;17.48;2.22;;;;;;;;;;4924553;28;20081;-73
2022/11/02 06:16:38;;;;;;;10.38;2.05;;;;;;;;;;4925711;28;20046;-74
2022/11/02 06:19:19;;;;;;;19.90;2.28;;;;;;;;;;5010266;28;20070;-74
2022/11/02 06:21:45;;;;;;;8.57;1.90;;;;;;;;;;5015030;28;20978;-74
2022/11/02 06:24:27;;;;;;;20.88;2.22;;;;;;;;;;5020372;28;20085;-74
2022/11/02 06:26:57;;;;;;;15.55;1.48;;;;;;;;;;5014372;28;20054;-75
2022/11/02 06:29:24;;;;;;;14.95;1.98;;;;;;;;;;5019239;28;20054;-74
2022/11/02 06:31:55;;;;;;;9.30;2.03;;;;;;;;;;5016536;28;20069;-76
2022/11/02 06:34:36;;;;;;;10.18;1.90;;;;;;;;;;5017081;28;20063;-75
2022/11/02 06:37:03;;;;;;;11.98;1.67;;;;;;;;;;5022518;28;20058;-75
2022/11/02 06:39:30;;;;;;;12.80;2.00;;;;;;;;;;5025411;28;20061;-74
2022/11/02 06:42:00;;;;;;;12.32;1.92;;;;;;;;;;5018735;28;20925;-75
2022/11/02 06:44:52;;;;;;;10.80;1.67;;;;;;;;;;5015817;28;20041;-75
2022/11/02 06:47:20;;;;;;;13.27;2.22;;;;;;;;;;5018565;28;20052;-75
2022/11/02 06:49:59;;;;;;;11.85;2.10;;;;;;;;;;5012605;28;20049;-75
2022/11/02 06:52:28;;;;;;;12.20;1.80;;;;;;;;;;5021166;28;20054;-75
2022/11/02 06:55:09;;;;;;;18.92;2.78;;;;;;;;;;5010951;28;20085;-75
2022/11/02 06:57:53;;;;;;;16.92;2.08;;;;;;;;;;5018792;28;20046;-75
2022/11/02 07:37:26;;;;;;;10.48;1.83;;;;;;;;;;5195003;27;20368;-76
2022/11/02 07:39:53;;;;;;;9.18;1.88;;;;;;;;;;5163785;27;20047;-76
2022/11/02 07:42:20;;;;;;;13.15;2.10;;;;;;;;;;5185607;27;20039;-75
2022/11/02 07:44:47;;;;;;;8.90;1.27;;;;;;;;;;5187463;27;20042;-75
2022/11/02 07:47:14;;;;;;;10.35;1.63;;;;;;;;;;5187988;27;20720;-76
2022/11/02 07:49:41;;;;;;;8.50;1.65;;;;;;;;;;5219871;22;20581;-85
2022/11/02 07:52:08;;;;;;;18.77;1.70;;;;;;;;;;5155916;27;20070;-84
2022/11/02 07:54:38;;;;;;;11.73;1.67;;;;;;;;;;5138469;27;20048;-84
2022/11/02 07:57:10;;;;;;;12.25;1.80;;;;;;;;;;5149030;27;20051;-86
2022/11/02 07:59:37;;;;;;;15.82;2.03;;;;;;;;;;5132384;27;20051;-85
2022/11/02 08:02:04;;;;;;;10.63;2.15;;;;;;;;;;5144631;27;20050;-85
2022/11/02 08:04:32;;;;;;;14.65;1.80;;;;;;;;;;5136641;27;20145;-86
2022/11/02 08:06:59;;;;;;;15.77;2.45;;;;;;;;;;5147784;27;20058;-86
2022/11/02 08:09:27;;;;;;;8.25;1.42;;;;;;;;;;5132454;27;20059;-85
2022/11/02 08:11:56;;;;;;;13.07;1.75;;;;;;;;;;5148613;27;20061;-85
2022/11/02 08:14:23;;;;;;;10.25;1.52;;;;;;;;;;5136592;27;20085;-85
2022/11/02 08:16:52;;;;;;;14.82;2.15;;;;;;;;;;5149569;27;20054;-85
2022/11/02 08:19:22;;;;;;;13.23;2.00;;;;;;;;;;5146629;27;20860;-85
2022/11/02 08:21:52;;;;;;;10.50;2.28;;;;;;;;;;5154342;27;20047;-86
2022/11/02 08:24:19;;;;;;;9.32;2.08;;;;;;;;;;5129112;27;20182;-85
2022/11/02 08:26:46;;;;;;;11.68;2.00;;;;;;;;;;5148838;27;20431;-86
2022/11/02 08:29:19;;;;;;;;;;;;;;;;;;5148483;27;20078;-86
2022/11/02 08:31:47;;;;;;;15.02;2.08;;;;;;;;;;5135822;27;42174;-86
2022/11/02 08:34:16;;;;;;;11.70;1.90;;;;;;;;;;5128122;27;20047;-86
2022/11/02 08:36:43;;;;;;;10.55;1.30;;;;;;;;;;5149744;27;20051;-86
2022/11/02 08:39:10;;;;;;;9.35;1.63;;;;;;;;;;5145851;27;20051;-86
2022/11/02 08:41:44;;;;;;;7.00;1.60;;;;;;;;;;5136494;27;20061;-86
2022/11/02 08:44:14;;;;;;;7.07;2.15;;;;;;;;;;5146892;27;20120;-86
2022/11/02 08:46:43;;;;;;;11.35;1.60;;;;;;;;;;5145692;27;20147;-87
2022/11/02 08:49:11;;;;;;;11.95;2.45;;;;;;;;;;5123993;27;20055;-86
2022/11/02 08:51:40;;;;;;;10.38;1.50;;;;;;;;;;5127271;27;20191;-87
2022/11/02 08:54:07;;;;;;;10.93;1.85;;;;;;;;;;5116589;27;20047;-87
2022/11/02 08:56:37;;;;;;;11.82;1.52;;;;;;;;;;5127792;27;20485;-87
2022/11/02 08:59:07;;;;;;;10.90;1.58;;;;;;;;;;5116624;27;20058;-86
2022/11/02 09:01:38;;;;;;;12.25;1.83;;;;;;;;;;5133489;27;20056;-87
2022/11/02 09:04:05;;;;;;;14.07;2.08;;;;;;;;;;5117613;27;20059;-86
2022/11/02 09:06:32;;;;;;;9.48;1.65;;;;;;;;;;5115451;27;20523;-86
2022/11/02 09:08:59;;;;;;;12.52;1.83;;;;;;;;;;5140426;27;20802;-87
2022/11/02 09:11:29;;;;;;;10.32;1.33;;;;;;;;;;5118046;27;20949;-88
2022/11/02 09:13:57;;;;;;;11.00;2.00;;;;;;;;;;5110536;27;20043;-87
2022/11/02 09:16:24;;;;;;;6.78;1.13;;;;;;;;;;5132266;27;20056;-85
2022/11/02 09:18:54;;;;;;;9.85;1.83;;;;;;;;;;5133865;27;20059;-86
2022/11/02 09:21:29;;;;;;;12.40;2.22;;;;;;;;;;5124804;27;20220;-87
2022/11/02 09:23:59;;;;;;;13.90;1.60;;;;;;;;;;5137271;27;20323;-86
2022/11/02 09:26:27;;;;;;;9.88;1.67;;;;;;;;;;5115812;27;20143;-86
2022/11/02 09:28:54;;;;;;;12.10;1.77;;;;;;;;;;5114104;27;20452;-87
2022/11/02 09:31:21;;;;;;;10.98;1.88;;;;;;;;;;5110903;27;20051;-86
2022/11/02 09:33:52;;;;;;;15.35;2.00;;;;;;;;;;5134503;27;20051;-86
2022/11/02 09:36:21;;;;;;;7.47;1.85;;;;;;;;;;5119660;27;20059;-87
2022/11/02 09:38:52;;;;;;;12.52;1.90;;;;;;;;;;5131489;27;20063;-86
2022/11/02 09:41:22;;;;;;;12.85;2.08;;;;;;;;;;5130579;27;20416;-87
2022/11/02 09:44:04;;;;;;;10.35;2.35;;;;;;;;;;5134873;27;20051;-87
2022/11/02 09:46:39;;;;;;;8.33;1.80;;;;;;;;;;5116258;27;20077;-87
2022/11/02 09:49:20;;;;;;;11.98;1.95;;;;;;;;;;5124132;27;20056;-87
2022/11/02 09:51:57;;;;;;;17.50;1.88;;;;;;;;;;5131337;27;20051;-87
2022/11/02 09:54:30;;;;;;;14.18;2.50;;;;;;;;;;5134471;27;20055;-87
2022/11/02 09:57:00;;;;;;;12.85;2.00;;;;;;;;;;5129271;27;20043;-87
2022/11/02 09:59:27;;;;;;;10.80;1.65;;;;;;;;;;5113622;27;20194;-86
2022/11/02 10:02:00;;;;;;;10.20;2.00;;;;;;;;;;5112716;27;20083;-87
2022/11/02 10:04:33;;;;;;;15.67;2.30;;;;;;;;;;5128982;27;20138;-88
2022/11/02 10:07:00;;;;;;;;;;;;;;;;;;5107623;27;20051;-87
2022/11/02 10:09:34;;;;;;;15.70;2.20;;;;;;;;;;5129567;27;44354;-87
2022/11/02 10:12:21;;;;;;;9.52;2.15;;;;;;;;;;5107951;27;20516;-86
2022/11/02 10:14:52;;;;;;;13.35;2.10;;;;;;;;;;5109934;27;20048;-87
2022/11/02 10:17:30;;;;;;;11.02;1.70;;;;;;;;;;5110688;27;20058;-87
2022/11/02 10:19:59;;;;;;;12.27;2.03;;;;;;;;;;5111573;27;20043;-87
2022/11/02 10:22:28;;;;;;;13.55;2.15;;;;;;;;;;5113330;27;20497;-87
2022/11/02 10:24:56;;;;;;;12.55;1.80;;;;;;;;;;5128044;27;20107;-87
2022/11/02 10:27:28;;;;;;;25.67;2.90;;;;;;;;;;5127883;27;20048;-87
2022/11/02 10:29:55;;;;;;;12.45;1.92;;;;;;;;;;5131010;27;20058;-87
2022/11/02 10:32:23;;;;;;;10.52;1.92;;;;;;;;;;5120009;27;20039;-87
2022/11/02 10:34:50;;;;;;;9.70;1.98;;;;;;;;;;5116837;27;20394;-87
2022/11/02 10:37:42;;;;;;;12.90;1.65;;;;;;;;;;5115455;27;20560;-87
2022/11/02 10:40:13;;;;;;;11.18;1.98;;;;;;;;;;5111442;27;20824;-87
2022/11/02 10:42:42;;;;;;;11.20;1.70;;;;;;;;;;5132468;27;20077;-87
2022/11/02 10:45:15;;;;;;;14.52;2.55;;;;;;;;;;5125831;27;20574;-86
2022/11/02 10:47:55;;;;;;;9.80;1.55;;;;;;;;;;5134545;27;20055;-86
2022/11/02 10:50:29;;;;;;;13.40;1.60;;;;;;;;;;5132041;27;20083;-86
2022/11/02 10:53:00;;;;;;;11.55;1.70;;;;;;;;;;5133428;27;20760;-87
2022/11/02 10:56:14;;;;;;;10.20;2.28;;;;;;;;;;5130833;27;20921;-86
2022/11/02 10:58:49;;;;;;;9.88;1.67;;;;;;;;;;5130038;27;20053;-87
2022/11/02 11:01:16;;;;;;;9.80;2.03;;;;;;;;;;5106877;27;20054;-86
2022/11/02 11:03:54;;;;;;;8.60;1.67;;;;;;;;;;5130133;27;20047;-87
2022/11/02 11:06:22;;;;;;;14.68;1.85;;;;;;;;;;5123735;27;20066;-87
2022/11/02 11:08:52;;;;;;;17.50;2.30;;;;;;;;;;5109917;27;20156;-87
2022/11/02 11:11:23;;;;;;;11.02;1.98;;;;;;;;;;5127546;27;20062;-87
2022/11/02 11:14:09;;;;;;;14.63;1.80;;;;;;;;;;5110943;27;20056;-87
2022/11/02 11:17:00;;;;;;;9.10;1.80;;;;;;;;;;5124398;27;20577;-87
2022/11/02 11:19:52;;;;;;;19.95;2.38;;;;;;;;;;5114233;27;20150;-87
2022/11/02 11:22:38;;;;;;;12.10;1.92;;;;;;;;;;5118163;27;20104;-87
2022/11/02 11:25:24;;;;;;;9.05;2.00;;;;;;;;;;5126365;27;20054;-87
2022/11/02 11:27:58;;;;;;;15.70;2.20;;;;;;;;;;5131536;27;20051;-87
2022/11/02 11:30:29;;;;;;;13.75;1.83;;;;;;;;;;5116449;27;20554;-87
2022/11/02 11:33:19;;;;;;;7.38;1.60;;;;;;;;;;5131153;27;20054;-86
2022/11/02 11:35:48;;;;;;;12.05;1.75;;;;;;;;;;5112580;27;20170;-87
2022/11/02 11:38:23;;;;;;;15.27;2.78;;;;;;;;;;5131046;27;20054;-87
2022/11/02 11:41:36;;;;;;;;;;;;;;;;;;;;;
2022/11/02 11:44:14;;;;;;;14.70;2.58;;;;;;;;;;5134673;27;20534;-86
2022/11/02 11:47:00;;;;;;;15.45;1.77;;;;;;;;;;5143224;27;20047;-87
2022/11/02 11:53:14;;;;;;;16.67;2.10;;;;;;;;;;5131190;27;20043;-87
2022/11/02 11:56:09;;;;;;;14.45;2.03;;;;;;;;;;5144500;27;20055;-87
2022/11/02 11:58:52;;;;;;;11.85;2.00;;;;;;;;;;5132984;27;20875;-87
2022/11/02 12:01:30;;;;;;;16.25;2.20;;;;;;;;;;5133415;27;20075;-87
2022/11/02 12:04:30;;;;;;;17.23;2.28;;;;;;;;;;5122080;27;20393;-87
2022/11/02 12:07:07;;;;;;;18.73;2.55;;;;;;;;;;5132767;27;20068;-87
2022/11/02 12:09:57;;;;;;;17.70;1.90;;;;;;;;;;5133121;27;20058;-87
2022/11/02 12:12:47;;;;;;;16.65;2.03;;;;;;;;;;5136974;27;20064;-88
2022/11/02 12:15:41;;;;;;;12.18;1.95;;;;;;;;;;5140037;27;20058;-87
2022/11/02 12:18:27;;;;;;;15.13;2.20;;;;;;;;;;5139230;27;20047;-87
2022/11/02 12:21:06;;;;;;;14.57;2.03;;;;;;;;;;5138214;27;20051;-87
2022/11/02 12:23:47;;;;;;;10.80;2.15;;;;;;;;;;5138671;27;20032;-86
2022/11/02 12:30:15;;;;;;;10.75;1.40;;;;;;;;;;5116968;27;20086;-86
2022/11/02 12:33:04;;;;;;;10.63;1.80;;;;;;;;;;5130942;27;20043;-87
2022/11/02 12:35:56;;;;;;;19.75;2.00;;;;;;;;;;5148012;27;20065;-86
2022/11/02 12:38:54;;;;;;;8.98;2.15;;;;;;;;;;5146737;27;20086;-87
2022/11/02 12:41:47;;;;;;;7.30;1.70;;;;;;;;;;5124947;27;20098;-87
2022/11/02 12:44:28;;;;;;;9.13;1.90;;;;;;;;;;5060932;22;20061;-71
2022/11/02 12:47:05;;;;;;;15.82;2.20;;;;;;;;;;5063453;28;20053;-70
2022/11/02 12:49:40;;;;;;;10.73;1.73;;;;;;;;;;5058183;28;20049;-71
2022/11/02 12:52:26;;;;;;;14.70;1.88;;;;;;;;;;5057360;28;21562;-72
2022/11/02 12:54:55;;;;;;;14.30;1.98;;;;;;;;;;5058128;28;20056;-72
2022/11/02 12:57:23;;;;;;;9.48;1.50;;;;;;;;;;5055118;28;20057;-73
2022/11/02 12:59:53;;;;;;;10.95;1.90;;;;;;;;;;5032991;28;20079;-71
2022/11/02 13:02:24;;;;;;;10.95;1.95;;;;;;;;;;5054701;28;20053;-72
2022/11/02 13:05:02;;;;;;;14.68;2.22;;;;;;;;;;5058574;28;21163;-72
2022/11/02 13:07:48;;;;;;;13.68;2.22;;;;;;;;;;5049314;28;20049;-73
2022/11/02 13:10:24;;;;;;;9.43;1.80;;;;;;;;;;5039306;28;20136;-73
2022/11/02 13:12:54;;;;;;;9.18;1.92;;;;;;;;;;5055441;28;20077;-73
2022/11/02 13:15:23;;;;;;;11.93;2.22;;;;;;;;;;5058186;28;20045;-72
2022/11/02 13:17:53;;;;;;;10.38;1.38;;;;;;;;;;5054260;28;20073;-71
2022/11/02 13:20:23;;;;;;;9.98;1.80;;;;;;;;;;5055934;28;20045;-72
2022/11/02 13:23:03;;;;;;;10.40;1.23;;;;;;;;;;5050577;28;20057;-73
2022/11/02 13:25:33;;;;;;;8.07;1.73;;;;;;;;;;5041113;28;20056;-72
2022/11/02 13:28:03;;;;;;;7.95;1.50;;;;;;;;;;5055131;28;20056;-72
2022/11/02 13:30:33;;;;;;;10.07;1.55;;;;;;;;;;5060382;28;20049;-72
2022/11/02 13:33:00;;;;;;;8.88;1.73;;;;;;;;;;5052766;28;20056;-73
2022/11/02 13:35:42;;;;;;;9.90;1.60;;;;;;;;;;5054716;28;20099;-72
2022/11/02 13:38:12;;;;;;;16.77;2.15;;;;;;;;;;5050994;28;20049;-71
2022/11/02 13:40:42;;;;;;;13.98;2.22;;;;;;;;;;5040994;28;20045;-73
2022/11/02 13:43:28;;;;;;;8.85;1.75;;;;;;;;;;5059186;28;20065;-71
2022/11/02 13:45:55;;;;;;;10.07;2.13;;;;;;;;;;5076485;28;20045;-71
2022/11/02 13:48:35;;;;;;;11.68;2.30;;;;;;;;;;5072311;28;20406;-71
2022/11/02 13:51:08;;;;;;;9.43;1.58;;;;;;;;;;5079193;28;20144;-72
2022/11/02 13:53:38;;;;;;;7.80;1.80;;;;;;;;;;5081008;28;20464;-72
2022/11/02 13:56:09;;;;;;;7.55;1.60;;;;;;;;;;5079420;28;20056;-71
2022/11/02 13:58:40;;;;;;;7.80;1.48;;;;;;;;;;5074366;28;20060;-70
2022/11/02 14:01:09;;;;;;;11.30;1.92;;;;;;;;;;5089518;28;20107;-71
2022/11/02 14:03:49;;;;;;;12.40;1.98;;;;;;;;;;5081817;28;20067;-73
2022/11/02 14:06:18;;;;;;;8.15;1.60;;;;;;;;;;5079070;28;20064;-73
2022/11/02 14:08:56;;;;;;;13.35;2.00;;;;;;;;;;5085981;28;20524;-72
2022/11/02 14:11:25;;;;;;;10.40;2.03;;;;;;;;;;5065149;28;20064;-71
2022/11/02 14:13:56;;;;;;;12.40;1.88;;;;;;;;;;5078842;28;20053;-72
2022/11/02 14:16:40;;;;;;;8.52;1.90;;;;;;;;;;5085466;28;20131;-73
2022/11/02 14:19:17;;;;;;;12.07;1.85;;;;;;;;;;5086555;28;20134;-70
2022/11/02 14:21:58;;;;;;;17.08;2.75;;;;;;;;;;5054674;28;20135;-71
2022/11/02 14:24:32;;;;;;;10.32;2.05;;;;;;;;;;5089718;28;20139;-72
2022/11/02 14:27:04;;;;;;;9.27;2.22;;;;;;;;;;5053168;28;20059;-76
2022/11/02 14:29:46;;;;;;;11.23;2.03;;;;;;;;;;5079780;28;20127;-72
2022/11/02 14:32:13;;;;;;;8.95;1.88;;;;;;;;;;5063940;28;20133;-71
2022/11/02 14:34:49;;;;;;;11.45;1.92;;;;;;;;;;5088968;28;20564;-74
2022/11/02 14:37:36;;;;;;;12.07;1.92;;;;;;;;;;5060983;28;20048;-72
2022/11/02 14:40:12;;;;;;;9.48;1.83;;;;;;;;;;5070383;28;20127;-72
2022/11/02 14:42:52;;;;;;;13.70;2.45;;;;;;;;;;5090214;28;20053;-72
2022/11/02 14:45:28;;;;;;;14.32;1.88;;;;;;;;;;5062230;28;20044;-72
2022/11/02 14:48:00;;;;;;;12.95;2.13;;;;;;;;;;5089750;28;20442;-70
2022/11/02 14:50:28;;;;;;;14.73;2.13;;;;;;;;;;5080276;28;22349;-72
2022/11/02 14:53:01;;;;;;;10.15;1.95;;;;;;;;;;5067604;28;20095;-73
2022/11/02 14:55:31;;;;;;;13.15;2.78;;;;;;;;;;5077616;28;20076;-73
2022/11/02 14:58:01;;;;;;;14.45;2.33;;;;;;;;;;5080925;28;20136;-72
2022/11/02 15:00:48;;;;;;;12.88;2.20;;;;;;;;;;5078212;28;20052;-73
2022/11/02 15:03:25;;;;;;;10.80;2.05;;;;;;;;;;5086429;28;20072;-72
2022/11/02 15:06:01;;;;;;;10.60;1.92;;;;;;;;;;5079162;28;20075;-74
2022/11/02 15:08:31;;;;;;;15.50;2.17;;;;;;;;;;5077674;28;20063;-71
2022/11/02 15:10:59;;;;;;;14.50;1.95;;;;;;;;;;5084780;28;20059;-71
2022/11/02 15:13:36;;;;;;;18.02;2.70;;;;;;;;;;5071669;28;20049;-71
2022/11/02 15:16:10;;;;;;;10.65;1.90;;;;;;;;;;5073151;28;20075;-71
2022/11/02 15:18:39;;;;;;;8.73;1.88;;;;;;;;;;5079390;28;20136;-72
2022/11/02 15:21:10;;;;;;;9.85;2.30;;;;;;;;;;5076230;28;20076;-72
2022/11/02 15:23:49;;;;;;;14.45;2.35;;;;;;;;;;5060904;28;20052;-72
2022/11/02 15:26:41;;;;;;;11.57;1.90;;;;;;;;;;5059002;28;20075;-71
2022/11/02 15:29:26;;;;;;;11.05;2.40;;;;;;;;;;5065008;28;20125;-72
2022/11/02 15:31:57;;;;;;;12.35;2.55;;;;;;;;;;5072618;28;22042;-71
2022/11/02 15:34:31;;;;;;;16.85;2.53;;;;;;;;;;5070162;28;20048;-71
2022/11/02 15:37:00;;;;;;;9.88;1.75;;;;;;;;;;5079516;28;20057;-73
2022/11/02 15:39:27;;;;;;;12.02;2.40;;;;;;;;;;5078487;28;20056;-71
2022/11/02 15:42:01;;;;;;;16.40;2.58;;;;;;;;;;5057838;28;20049;-72
2022/11/02 15:44:29;;;;;;;11.52;2.42;;;;;;;;;;5069364;28;20045;-71
2022/11/02 15:47:03;;;;;;;13.82;2.10;;;;;;;;;;5086210;28;20049;-71
2022/11/02 15:49:30;;;;;;;;;;;;;;;;;;5081866;28;20059;-71
2022/11/02 15:51:57;;;;;;;20.27;2.40;;;;;;;;;;5065455;28;44860;-71
2022/11/02 15:54:41;;;;;;;13.88;1.90;;;;;;;;;;5060492;28;20053;-71
2022/11/02 15:57:12;;;;;;;12.27;2.03;;;;;;;;;;5077181;28;20090;-72
2022/11/02 15:59:58;;;;;;;9.90;2.60;;;;;;;;;;5082592;28;20045;-71
2022/11/02 16:02:27;;;;;;;12.18;2.15;;;;;;;;;;5082988;28;20052;-72
2022/11/02 16:04:56;;;;;;;15.00;2.10;;;;;;;;;;5083009;28;20048;-73
2022/11/02 16:07:24;;;;;;;15.15;1.90;;;;;;;;;;5076584;28;20103;-72
2022/11/02 16:10:24;;;;;;;11.88;1.80;;;;;;;;;;5072996;28;20073;-73
2022/11/02 16:20:26;;;;;;;13.18;1.60;;;;;;;;;;4990841;27;1482212;-73
2022/11/02 16:22:59;;;;;;;13.82;2.78;;;;;;;;;;5020676;28;20050;-73
2022/11/02 16:25:35;;;;;;;15.87;2.20;;;;;;;;;;5022199;28;20093;-72
2022/11/02 16:28:23;;;;;;;18.35;2.47;;;;;;;;;;5024421;28;20265;-70
2022/11/02 16:31:08;;;;;;;10.35;2.00;;;;;;;;;;5034714;28;20053;-69
2022/11/02 16:33:46;;;;;;;11.02;2.03;;;;;;;;;;5028923;28;20064;-70
2022/11/02 16:36:15;;;;;;;11.00;2.13;;;;;;;;;;5024737;28;20047;-70
2022/11/02 16:39:02;;;;;;;15.98;2.40;;;;;;;;;;5023644;28;20415;-71
2022/11/02 16:41:32;;;;;;;14.45;1.88;;;;;;;;;;5027075;28;20089;-72
2022/11/02 16:44:00;;;;;;;14.63;2.45;;;;;;;;;;5020638;28;20052;-71
2022/11/02 16:46:29;;;;;;;8.00;2.05;;;;;;;;;;5024122;28;20056;-72
2022/11/02 16:49:17;;;;;;;16.45;2.00;;;;;;;;;;5023539;28;20046;-70
2022/11/02 16:51:49;;;;;;;12.63;2.10;;;;;;;;;;5004851;28;20069;-69
2022/11/02 16:54:28;;;;;;;10.10;1.85;;;;;;;;;;5003739;28;20050;-72
2022/11/02 16:57:02;;;;;;;12.23;2.05;;;;;;;;;;5002545;28;20054;-72
2022/11/02 16:59:45;;;;;;;15.32;2.22;;;;;;;;;;5010190;28;20052;-70
2022/11/02 17:02:13;;;;;;;14.32;2.08;;;;;;;;;;5006362;28;20062;-70
2022/11/02 17:04:42;;;;;;;16.95;2.42;;;;;;;;;;5006023;28;20742;-69